Time;durP1;ratioP1;P1;durP2;ratioP2;P2;SDS_P1;SDS_P2;PMS_P1;PMS_P2;Temp;Humidity;BMP_temperature;BMP_pressure;BME280_temperature;BME280_humidity;BME280_pressure;Samples;Min_cycle;Max_cycle;Signal;HPM_P1;HPM_P2
2022/09/23 00:01:52;;;;;;;11.65;8.35;;;10.70;99.90;;;;;;5073307;28;20040;-61
2022/09/23 00:04:19;;;;;;;13.73;9.30;;;10.70;99.90;;;;;;5074530;28;20040;-61
2022/09/23 00:06:44;;;;;;;13.18;8.85;;;10.70;99.90;;;;;;5092473;28;20043;-61
2022/09/23 00:09:10;;;;;;;12.43;9.18;;;10.70;99.90;;;;;;5073943;28;20391;-61
2022/09/23 00:11:37;;;;;;;12.43;8.38;;;10.70;99.90;;;;;;5092320;28;20040;-61
2022/09/23 00:14:03;;;;;;;11.23;9.02;;;10.70;99.90;;;;;;5073734;28;20044;-61
2022/09/23 00:16:32;;;;;;;11.50;8.85;;;10.70;99.90;;;;;;5091510;28;20047;-61
2022/09/23 00:18:58;;;;;;;14.63;9.25;;;10.70;99.90;;;;;;5091947;28;20040;-61
2022/09/23 00:21:24;;;;;;;11.50;9.95;;;10.70;99.90;;;;;;5092539;28;20032;-61
2022/09/23 00:23:50;;;;;;;12.57;11.23;;;10.70;99.90;;;;;;5072802;28;20060;-61
2022/09/23 00:26:17;;;;;;;11.40;10.20;;;10.70;99.90;;;;;;5092244;28;20484;-61
2022/09/23 00:28:44;;;;;;;15.90;11.40;;;10.70;99.90;;;;;;5092213;28;20080;-61
2022/09/23 00:31:17;;;;;;;12.55;10.02;;;10.70;99.90;;;;;;5091409;28;20097;-61
2022/09/23 00:33:43;;;;;;;12.38;10.07;;;10.70;99.90;;;;;;5092492;28;20075;-61
2022/09/23 00:36:15;;;;;;;14.77;11.48;;;10.70;99.90;;;;;;5091729;28;20075;-61
2022/09/23 00:38:42;;;;;;;15.45;11.35;;;10.70;99.90;;;;;;5073443;28;20123;-61
2022/09/23 00:41:08;;;;;;;13.10;11.05;;;10.60;99.90;;;;;;5091586;28;20481;-61
2022/09/23 00:43:36;;;;;;;13.48;10.85;;;10.70;99.90;;;;;;5091223;28;20119;-61
2022/09/23 00:46:02;;;;;;;12.52;10.55;;;10.70;99.90;;;;;;5076798;28;20097;-61
2022/09/23 00:48:28;;;;;;;12.30;10.77;;;10.60;99.90;;;;;;5078305;28;20086;-61
2022/09/23 00:50:54;;;;;;;13.10;10.45;;;10.60;99.90;;;;;;5094832;28;20043;-61
2022/09/23 00:53:25;;;;;;;18.38;9.30;;;10.60;99.90;;;;;;5096174;28;20036;-61
2022/09/23 00:55:59;;;;;;;15.57;10.65;;;10.60;99.90;;;;;;5095387;28;20048;-61
2022/09/23 00:58:30;;;;;;;12.48;10.65;;;10.70;99.90;;;;;;5095281;28;20040;-61
2022/09/23 01:00:59;;;;;;;12.45;10.63;;;10.70;99.90;;;;;;5077258;28;20036;-61
2022/09/23 01:03:25;;;;;;;17.15;11.18;;;10.70;99.90;;;;;;5077869;28;20055;-61
2022/09/23 01:05:51;;;;;;;12.18;10.55;;;10.70;99.90;;;;;;5094639;28;20404;-61
2022/09/23 01:08:18;;;;;;;17.23;11.80;;;10.70;99.90;;;;;;5095567;28;20115;-61
2022/09/23 01:11:17;;;;;;;13.60;10.57;;;10.70;99.90;;;;;;5077649;28;20044;-61
2022/09/23 01:14:09;;;;;;;13.55;12.10;;;10.70;99.90;;;;;;5095192;28;20040;-61
2022/09/23 01:16:57;;;;;;;12.43;10.43;;;10.70;99.90;;;;;;5095820;28;20490;-61
2022/09/23 01:19:35;;;;;;;14.10;11.05;;;10.70;99.90;;;;;;5094997;28;20075;-61
2022/09/23 01:22:16;;;;;;;14.68;11.57;;;10.70;99.90;;;;;;5077017;28;20036;-61
2022/09/23 01:25:05;;;;;;;13.40;11.55;;;10.70;99.90;;;;;;5077485;28;20084;-61
2022/09/23 01:27:40;;;;;;;15.43;12.10;;;10.70;99.90;;;;;;5059857;28;20036;-61
2022/09/23 01:30:26;;;;;;;14.75;10.88;;;10.70;99.90;;;;;;5076823;28;20051;-61
2022/09/23 01:33:27;;;;;;;14.40;11.65;;;10.70;99.90;;;;;;5076154;28;20052;-61
2022/09/23 01:36:09;;;;;;;17.20;12.82;;;10.70;99.90;;;;;;5063270;28;20072;-61
2022/09/23 01:38:43;;;;;;;17.58;13.13;;;10.70;99.90;;;;;;5095362;28;20052;-61
2022/09/23 01:41:28;;;;;;;15.70;12.77;;;10.70;99.90;;;;;;5093744;28;20042;-61
2022/09/23 01:44:07;;;;;;;17.10;12.27;;;10.70;99.90;;;;;;5059680;28;20044;-61
2022/09/23 01:46:50;;;;;;;14.43;12.52;;;10.70;99.90;;;;;;5077334;28;20094;-61
2022/09/23 01:49:24;;;;;;;15.43;11.93;;;10.70;99.90;;;;;;5076859;28;20051;-61
2022/09/23 01:51:59;;;;;;;15.75;12.60;;;10.70;99.90;;;;;;5094577;28;20054;-61
2022/09/23 01:54:56;;;;;;;16.35;13.85;;;10.70;99.90;;;;;;5094354;28;20451;-61
2022/09/23 01:57:32;;;;;;;17.02;12.95;;;10.70;99.90;;;;;;5080993;28;20048;-61
2022/09/23 02:00:14;;;;;;;17.85;12.90;;;10.70;99.90;;;;;;5094186;28;20047;-61
2022/09/23 02:02:59;;;;;;;18.40;13.95;;;10.70;99.90;;;;;;5093978;28;20481;-61
2022/09/23 02:05:33;;;;;;;17.25;13.15;;;10.60;99.90;;;;;;5094694;28;20036;-61
2022/09/23 02:08:06;;;;;;;16.65;13.20;;;10.60;99.90;;;;;;5093584;28;20122;-61
2022/09/23 02:10:50;;;;;;;15.90;13.45;;;10.60;99.90;;;;;;5094676;28;20032;-61
2022/09/23 02:13:45;;;;;;;17.88;13.68;;;10.50;99.90;;;;;;5076441;28;20040;-61
2022/09/23 02:16:38;;;;;;;16.00;13.13;;;10.50;99.90;;;;;;5093985;28;20036;-61
2022/09/23 02:19:33;;;;;;;16.20;13.18;;;10.50;99.90;;;;;;5083985;28;20159;-61
2022/09/23 02:22:44;;;;;;;16.83;14.48;;;10.40;99.90;;;;;;5074218;28;20546;-61
2022/09/23 02:25:11;;;;;;;16.00;12.52;;;10.40;99.90;;;;;;5076067;28;20071;-61
2022/09/23 02:27:50;;;;;;;18.27;13.93;;;10.40;99.90;;;;;;5094234;28;20038;-61
2022/09/23 02:30:25;;;;;;;18.67;13.65;;;10.30;99.90;;;;;;5075691;28;20048;-61
2022/09/23 02:33:03;;;;;;;15.75;13.98;;;10.30;99.90;;;;;;5093777;28;20126;-61
2022/09/23 02:35:47;;;;;;;18.77;14.73;;;10.30;99.90;;;;;;5094410;28;20032;-61
2022/09/23 02:38:50;;;;;;;17.42;15.48;;;10.20;99.90;;;;;;5093717;28;20419;-61
2022/09/23 02:41:31;;;;;;;16.65;14.15;;;10.20;99.90;;;;;;5093983;28;20499;-61
2022/09/23 02:44:06;;;;;;;18.63;15.77;;;10.20;99.90;;;;;;5092787;28;20392;-61
2022/09/23 02:46:32;;;;;;;18.25;16.15;;;10.10;99.90;;;;;;5075820;28;20508;-61
2022/09/23 02:49:09;;;;;;;17.92;13.85;;;10.10;99.90;;;;;;5075243;28;20082;-61
2022/09/23 02:51:36;;;;;;;15.68;13.82;;;10.10;99.90;;;;;;5074850;28;20048;-61
2022/09/23 02:54:04;;;;;;;16.40;13.82;;;10.10;99.90;;;;;;5093182;28;20051;-61
2022/09/23 02:56:29;;;;;;;14.50;12.80;;;10.10;99.90;;;;;;5075710;28;20055;-61
2022/09/23 02:58:56;;;;;;;18.40;13.75;;;10.10;99.90;;;;;;5092299;28;20044;-61
2022/09/23 03:02:03;;;;;;;18.65;13.90;;;10.10;99.90;;;;;;5075590;28;20040;-61
2022/09/23 03:04:37;;;;;;;18.48;16.10;;;10.10;99.90;;;;;;5092806;28;20040;-61
2022/09/23 03:07:08;;;;;;;15.57;14.00;;;10.00;99.90;;;;;;5092180;28;20536;-61
2022/09/23 03:09:46;;;;;;;20.85;15.27;;;10.00;99.90;;;;;;5093596;28;20455;-61
2022/09/23 03:12:34;;;;;;;18.63;16.25;;;9.90;99.90;;;;;;5074633;28;20365;-61
2022/09/23 03:15:13;;;;;;;20.45;15.82;;;9.90;99.90;;;;;;5092711;28;20035;-61
2022/09/23 03:17:54;;;;;;;18.42;15.63;;;9.90;99.90;;;;;;5093281;28;20044;-61
2022/09/23 03:20:33;;;;;;;17.70;14.50;;;9.80;99.90;;;;;;5092643;28;20044;-61
2022/09/23 03:23:02;;;;;;;15.65;12.65;;;9.80;99.90;;;;;;5074669;28;20101;-61
2022/09/23 03:25:32;;;;;;;15.90;14.10;;;9.80;99.90;;;;;;5092548;28;20089;-61
2022/09/23 03:28:00;;;;;;;18.23;15.82;;;9.80;99.90;;;;;;5092496;28;20553;-61
2022/09/23 03:30:27;;;;;;;20.25;15.13;;;9.70;99.90;;;;;;5093330;28;20046;-61
2022/09/23 03:32:54;;;;;;;16.83;13.60;;;9.70;99.90;;;;;;5073750;28;20075;-61
2022/09/23 03:35:24;;;;;;;18.77;15.52;;;9.70;99.90;;;;;;5075187;28;20396;-61
2022/09/23 03:37:56;;;;;;;17.55;14.45;;;9.70;99.90;;;;;;5092227;28;20480;-61
2022/09/23 03:40:40;;;;;;;20.60;16.27;;;9.70;99.90;;;;;;5091950;28;20040;-61
2022/09/23 03:43:07;;;;;;;18.60;14.65;;;9.60;99.90;;;;;;5092538;28;20079;-61
2022/09/23 03:45:34;;;;;;;16.70;14.50;;;9.60;99.90;;;;;;5074731;28;20036;-61
2022/09/23 03:48:00;;;;;;;18.90;15.82;;;9.50;99.90;;;;;;5073504;28;20111;-61
2022/09/23 03:50:26;;;;;;;18.40;15.15;;;9.50;99.90;;;;;;5074669;28;20047;-61
2022/09/23 03:52:52;;;;;;;16.90;13.77;;;9.50;99.90;;;;;;5074248;28;20110;-61
2022/09/23 03:55:18;;;;;;;19.38;16.85;;;9.50;99.90;;;;;;5073743;28;20048;-61
2022/09/23 03:57:45;;;;;;;19.83;15.40;;;9.50;99.90;;;;;;5074711;28;20048;-61
2022/09/23 04:00:11;;;;;;;17.67;14.95;;;9.50;99.90;;;;;;5074451;28;20094;-61
2022/09/23 04:02:38;;;;;;;20.80;16.50;;;9.50;99.90;;;;;;5091934;28;20400;-61
2022/09/23 04:05:05;;;;;;;21.13;15.32;;;9.50;99.90;;;;;;5074049;28;20064;-61
2022/09/23 04:07:30;;;;;;;19.00;14.60;;;9.50;99.90;;;;;;5091531;28;20477;-61
2022/09/23 04:09:56;;;;;;;19.25;15.15;;;9.40;99.90;;;;;;5073629;28;20052;-61
2022/09/23 04:12:22;;;;;;;17.73;14.32;;;9.40;99.90;;;;;;5092686;28;20071;-61
2022/09/23 04:14:48;;;;;;;21.40;14.35;;;9.40;99.90;;;;;;5073306;28;20546;-61
2022/09/23 04:17:13;;;;;;;18.17;15.27;;;9.40;99.90;;;;;;5092630;28;20040;-61
2022/09/23 04:19:39;;;;;;;20.63;15.55;;;9.40;99.90;;;;;;5074068;28;20130;-61
2022/09/23 04:22:06;;;;;;;19.75;14.15;;;9.40;99.90;;;;;;5073041;28;20109;-61
2022/09/23 04:24:32;;;;;;;18.90;14.90;;;9.40;99.90;;;;;;5074623;28;20378;-61
2022/09/23 04:26:58;;;;;;;20.45;16.17;;;9.40;99.90;;;;;;5091986;28;20040;-61
2022/09/23 04:29:24;;;;;;;18.58;14.68;;;9.40;99.90;;;;;;5073438;28;20050;-61
2022/09/23 04:31:51;;;;;;;20.10;15.10;;;9.40;99.90;;;;;;5091605;28;20489;-61
2022/09/23 04:34:18;;;;;;;17.40;15.57;;;9.40;99.90;;;;;;5057461;28;20040;-61
2022/09/23 04:36:45;;;;;;;18.35;14.80;;;9.40;99.90;;;;;;5073274;28;20044;-61
2022/09/23 04:39:11;;;;;;;18.00;15.38;;;9.40;99.90;;;;;;5092238;28;20048;-61
2022/09/23 04:41:37;;;;;;;19.45;15.45;;;9.40;99.90;;;;;;5074132;28;20036;-61
2022/09/23 04:44:04;;;;;;;18.73;15.95;;;9.40;99.90;;;;;;5072698;28;20085;-61
2022/09/23 04:46:30;;;;;;;18.63;14.65;;;9.40;99.90;;;;;;5057459;28;20047;-61
2022/09/23 04:48:56;;;;;;;19.45;15.70;;;9.40;99.90;;;;;;5091503;28;20047;-61
2022/09/23 04:51:23;;;;;;;20.10;16.08;;;9.50;99.90;;;;;;5056640;28;20040;-61
2022/09/23 04:53:51;;;;;;;17.05;14.10;;;9.50;99.90;;;;;;5073459;28;20044;-61
2022/09/23 04:56:19;;;;;;;23.15;16.05;;;9.50;99.90;;;;;;5092007;28;20472;-61
2022/09/23 04:58:46;;;;;;;17.08;14.50;;;9.50;99.90;;;;;;5090845;28;20212;-61
2022/09/23 05:01:25;;;;;;;19.30;15.05;;;9.50;99.90;;;;;;5073904;28;20051;-61
2022/09/23 05:03:53;;;;;;;16.52;14.55;;;9.50;99.90;;;;;;5072929;28;20124;-61
2022/09/23 05:06:20;;;;;;;20.17;16.08;;;9.50;99.90;;;;;;5073843;28;20040;-61
2022/09/23 05:08:51;;;;;;;19.95;15.90;;;9.50;99.90;;;;;;5073169;28;20043;-61
2022/09/23 05:11:17;;;;;;;22.75;15.60;;;9.50;99.90;;;;;;5091017;28;20511;-61
2022/09/23 05:13:47;;;;;;;19.58;14.77;;;9.50;99.90;;;;;;5057168;28;20051;-61
2022/09/23 05:16:13;;;;;;;22.58;16.33;;;9.50;99.90;;;;;;5091907;28;20040;-61
2022/09/23 05:18:41;;;;;;;18.40;14.35;;;9.50;99.90;;;;;;5072849;28;20504;-61
2022/09/23 05:21:09;;;;;;;19.38;15.23;;;9.50;99.90;;;;;;5091349;28;20040;-61
2022/09/23 05:23:36;;;;;;;19.42;16.10;;;9.50;99.90;;;;;;5091513;28;20052;-61
2022/09/23 05:26:07;;;;;;;21.17;16.20;;;9.50;99.90;;;;;;5072296;28;20072;-61
2022/09/23 05:28:33;;;;;;;16.63;14.43;;;9.50;99.90;;;;;;5074069;28;20501;-61
2022/09/23 05:31:03;;;;;;;20.02;15.60;;;9.50;99.90;;;;;;5074036;28;20051;-61
2022/09/23 05:33:29;;;;;;;19.60;15.05;;;9.50;99.90;;;;;;5076152;28;20040;-61
2022/09/23 05:35:54;;;;;;;15.25;13.43;;;9.50;99.90;;;;;;5076544;28;20043;-61
2022/09/23 05:38:20;;;;;;;18.08;15.55;;;9.50;99.90;;;;;;5095261;28;20040;-61
2022/09/23 05:40:45;;;;;;;18.08;13.18;;;9.50;99.90;;;;;;5075818;28;20036;-61
2022/09/23 05:43:11;;;;;;;20.00;15.23;;;9.60;99.90;;;;;;5077085;28;20064;-60
2022/09/23 05:45:37;;;;;;;16.00;14.30;;;9.50;99.90;;;;;;5077077;28;20047;-61
2022/09/23 05:48:03;;;;;;;22.08;17.30;;;9.60;99.90;;;;;;5075613;28;20043;-61
2022/09/23 05:50:28;;;;;;;20.00;14.82;;;9.60;99.90;;;;;;5060244;28;20075;-61
2022/09/23 05:52:54;;;;;;;17.38;14.70;;;9.60;99.90;;;;;;5094020;28;20407;-61
2022/09/23 05:55:19;;;;;;;18.73;15.25;;;9.60;99.90;;;;;;5094988;28;20036;-61
2022/09/23 05:57:45;;;;;;;18.65;14.85;;;9.60;99.90;;;;;;5094501;28;20476;-61
2022/09/23 06:00:11;;;;;;;20.15;15.20;;;9.60;99.90;;;;;;5093901;28;20075;-61
2022/09/23 06:02:37;;;;;;;18.50;14.88;;;9.60;99.90;;;;;;5094664;28;20550;-61
2022/09/23 06:05:03;;;;;;;18.75;15.82;;;9.60;99.90;;;;;;5094084;28;20040;-61
2022/09/23 06:07:30;;;;;;;18.77;15.50;;;9.60;99.90;;;;;;5059971;28;20045;-61
2022/09/23 06:09:56;;;;;;;20.25;14.25;;;9.60;99.90;;;;;;5100025;28;20481;-61
2022/09/23 06:12:25;;;;;;;18.92;14.38;;;9.70;99.90;;;;;;5065249;28;20040;-61
2022/09/23 06:14:51;;;;;;;17.45;14.88;;;9.70;99.90;;;;;;5061638;28;20130;-61
2022/09/23 06:17:17;;;;;;;18.02;14.32;;;9.70;99.90;;;;;;5111516;28;20468;-61
2022/09/23 06:19:43;;;;;;;18.13;14.68;;;9.80;99.90;;;;;;5109936;28;20071;-61
2022/09/23 06:22:09;;;;;;;20.45;15.18;;;9.80;99.90;;;;;;5092388;28;20408;-61
2022/09/23 06:24:35;;;;;;;17.13;15.32;;;9.80;99.90;;;;;;5094548;28;20032;-60
2022/09/23 06:27:01;;;;;;;20.17;14.15;;;9.90;99.90;;;;;;5082900;28;20520;-61
2022/09/23 06:29:29;;;;;;;19.92;16.52;;;9.90;99.90;;;;;;5055562;28;20045;-61
2022/09/23 06:31:55;;;;;;;17.85;15.90;;;10.00;99.90;;;;;;5111033;28;20039;-61
2022/09/23 06:34:21;;;;;;;17.02;14.90;;;10.00;99.90;;;;;;5090106;28;20488;-61
2022/09/23 06:36:46;;;;;;;16.25;14.40;;;10.10;99.90;;;;;;5079313;28;20047;-61
2022/09/23 06:39:15;;;;;;;18.00;15.10;;;10.10;99.90;;;;;;5051779;28;20063;-60
2022/09/23 06:41:41;;;;;;;19.80;16.83;;;10.10;99.90;;;;;;5090496;28;20071;-61
2022/09/23 06:44:07;;;;;;;28.83;15.75;;;10.20;99.90;;;;;;5072100;28;20068;-60
2022/09/23 06:46:32;;;;;;;19.52;15.80;;;10.20;99.90;;;;;;5068878;28;20069;-60
2022/09/23 06:48:58;;;;;;;21.10;14.95;;;10.30;99.90;;;;;;5055974;28;20048;-61
2022/09/23 06:51:24;;;;;;;17.20;14.43;;;10.30;99.90;;;;;;5065862;28;20097;-61
2022/09/23 06:53:50;;;;;;;17.35;14.82;;;10.40;99.90;;;;;;5052406;28;20501;-60
2022/09/23 06:56:18;;;;;;;18.45;14.23;;;10.40;99.90;;;;;;5053803;28;20056;-61
2022/09/23 06:58:45;;;;;;;19.00;14.02;;;10.50;99.90;;;;;;5059018;28;20532;-60
2022/09/23 07:01:14;;;;;;;19.83;14.77;;;10.50;99.90;;;;;;5087738;28;20044;-61
2022/09/23 07:03:41;;;;;;;18.42;16.42;;;10.60;99.90;;;;;;5088852;28;20037;-61
2022/09/23 07:06:06;;;;;;;18.23;13.27;;;10.60;99.90;;;;;;5069521;28;20081;-61
2022/09/23 07:08:34;;;;;;;17.90;14.77;;;10.70;99.90;;;;;;5069429;28;20085;-61
2022/09/23 07:11:04;;;;;;;16.58;14.88;;;10.80;99.90;;;;;;5051499;28;20044;-61
2022/09/23 07:13:32;;;;;;;17.92;14.55;;;10.90;99.90;;;;;;5070410;28;20127;-61
2022/09/23 07:16:00;;;;;;;19.63;15.38;;;10.90;99.90;;;;;;5066817;28;20045;-61
2022/09/23 07:18:26;;;;;;;18.08;15.23;;;11.00;99.90;;;;;;5070708;28;20040;-61
2022/09/23 07:20:53;;;;;;;21.40;15.02;;;11.10;99.90;;;;;;5101023;28;20087;-61
2022/09/23 07:23:19;;;;;;;17.85;14.45;;;11.20;99.90;;;;;;5071939;28;20071;-61
2022/09/23 07:25:50;;;;;;;18.02;14.32;;;11.20;99.90;;;;;;5078477;28;20060;-61
2022/09/23 07:28:19;;;;;;;16.85;13.40;;;11.30;99.90;;;;;;5081874;28;20069;-61
2022/09/23 07:30:45;;;;;;;15.43;13.82;;;11.40;99.90;;;;;;5090018;28;20504;-61
2022/09/23 07:33:11;;;;;;;16.88;14.68;;;11.40;99.90;;;;;;5065271;28;20162;-61
2022/09/23 07:35:41;;;;;;;17.35;15.55;;;11.40;99.90;;;;;;5071930;28;20131;-61
2022/09/23 07:38:09;;;;;;;18.17;15.35;;;11.50;99.90;;;;;;5052507;28;20048;-61
2022/09/23 07:40:34;;;;;;;16.42;13.60;;;11.50;99.90;;;;;;5085273;28;20048;-60
2022/09/23 07:43:03;;;;;;;15.82;13.27;;;11.50;99.90;;;;;;5073772;28;20473;-61
2022/09/23 07:45:30;;;;;;;17.17;13.30;;;11.60;99.90;;;;;;5051571;28;20052;-61
2022/09/23 07:47:56;;;;;;;16.77;13.73;;;11.60;99.90;;;;;;5071434;28;20056;-61
2022/09/23 07:50:22;;;;;;;16.17;14.18;;;11.70;99.90;;;;;;5070750;28;20036;-61
2022/09/23 07:52:51;;;;;;;19.17;14.50;;;11.70;99.90;;;;;;5061213;28;20210;-61
2022/09/23 07:55:18;;;;;;;20.90;15.40;;;11.80;99.90;;;;;;5106623;28;20035;-60
2022/09/23 07:57:44;;;;;;;16.38;14.10;;;11.80;99.90;;;;;;5067532;28;20040;-60
2022/09/23 08:00:12;;;;;;;18.00;14.98;;;11.90;99.90;;;;;;5046187;28;20043;-61
2022/09/23 08:02:39;;;;;;;14.93;13.38;;;12.00;99.90;;;;;;5058221;28;20487;-63
2022/09/23 08:05:06;;;;;;;15.52;13.93;;;12.00;99.90;;;;;;5077784;28;20128;-63
2022/09/23 08:07:33;;;;;;;16.45;13.90;;;12.10;99.90;;;;;;5071535;28;20397;-62
2022/09/23 08:10:00;;;;;;;16.55;13.95;;;12.10;99.90;;;;;;5078844;28;20044;-62
2022/09/23 08:12:28;;;;;;;17.63;14.00;;;12.10;99.90;;;;;;5073681;28;20086;-62
2022/09/23 08:14:54;;;;;;;15.57;12.70;;;12.20;99.90;;;;;;5062958;28;20040;-61
2022/09/23 08:17:19;;;;;;;15.23;13.57;;;12.20;99.90;;;;;;5092374;28;20491;-61
2022/09/23 08:19:45;;;;;;;15.55;13.45;;;12.30;99.90;;;;;;5090218;28;20044;-61
2022/09/23 08:22:11;;;;;;;16.77;14.48;;;12.30;99.90;;;;;;5073350;28;20036;-61
2022/09/23 08:24:36;;;;;;;17.02;13.40;;;12.40;99.90;;;;;;5061147;28;20124;-61
2022/09/23 08:27:02;;;;;;;15.88;13.88;;;12.40;99.90;;;;;;5071870;28;20037;-61
2022/09/23 08:29:28;;;;;;;16.02;13.55;;;12.50;99.90;;;;;;5040776;28;20033;-61
2022/09/23 08:31:54;;;;;;;18.17;13.45;;;12.50;99.90;;;;;;5071631;28;20033;-61
2022/09/23 08:34:21;;;;;;;17.58;13.02;;;12.60;99.90;;;;;;5063278;28;20119;-61
2022/09/23 08:36:56;;;;;;;15.35;12.45;;;12.70;99.90;;;;;;5086655;28;20443;-61
2022/09/23 08:39:22;;;;;;;16.42;14.15;;;12.80;99.90;;;;;;5055736;28;20080;-61
2022/09/23 08:42:07;;;;;;;13.52;11.27;;;12.80;99.90;;;;;;5057310;28;20072;-61
2022/09/23 08:44:42;;;;;;;15.52;13.43;;;13.00;99.90;;;;;;5037732;28;20422;-61
2022/09/23 08:50:57;;;;;;;14.45;11.18;;;13.20;99.90;;;;;;5071746;28;20071;-61
2022/09/23 08:53:30;;;;;;;15.23;11.93;;;13.40;99.90;;;;;;5071796;28;20474;-61
2022/09/23 08:55:58;;;;;;;15.88;12.25;;;13.50;99.90;;;;;;5091001;28;20040;-61
2022/09/23 08:58:27;;;;;;;14.40;12.40;;;13.50;99.90;;;;;;5073562;28;20071;-61
2022/09/23 09:01:23;;;;;;;18.42;11.90;;;13.60;99.90;;;;;;5086042;28;20043;-62
2022/09/23 09:03:53;;;;;;;17.73;11.38;;;13.60;99.90;;;;;;5093981;28;20043;-63
2022/09/23 09:06:40;;;;;;;14.43;12.63;;;13.60;99.90;;;;;;5094881;28;20025;-62
2022/09/23 09:09:22;;;;;;;14.32;12.07;;;13.60;99.90;;;;;;5070443;28;20390;-62
2022/09/23 09:11:51;;;;;;;16.63;13.07;;;13.60;99.90;;;;;;5074401;28;20043;-62
2022/09/23 09:14:29;;;;;;;14.90;11.75;;;13.60;99.90;;;;;;5074522;28;20052;-62
2022/09/23 09:16:58;;;;;;;15.25;12.18;;;13.60;99.90;;;;;;5067779;28;20046;-61
2022/09/23 09:20:00;;;;;;;14.73;10.90;;;13.60;99.90;;;;;;5088066;28;20043;-62
2022/09/23 09:22:50;;;;;;;13.68;11.35;;;13.60;99.90;;;;;;5059387;28;20075;-62
2022/09/23 09:25:18;;;;;;;15.73;12.65;;;13.60;99.90;;;;;;5080710;28;20041;-61
2022/09/23 09:27:45;;;;;;;13.40;11.25;;;13.60;99.90;;;;;;5057613;28;20043;-61
2022/09/23 09:30:15;;;;;;;14.27;11.82;;;13.60;99.90;;;;;;5076480;28;20078;-61
2022/09/23 09:32:49;;;;;;;15.57;11.93;;;13.60;99.90;;;;;;5074579;28;20036;-61
2022/09/23 09:35:52;;;;;;;15.80;12.20;;;13.70;99.90;;;;;;5070034;28;20040;-61
2022/09/23 09:38:20;;;;;;;15.00;12.88;;;13.80;99.90;;;;;;5074649;28;20044;-61
2022/09/23 09:40:47;;;;;;;15.15;12.18;;;13.80;99.90;;;;;;5074108;28;20484;-62
2022/09/23 09:43:22;;;;;;;14.55;12.43;;;13.90;99.90;;;;;;5074675;28;20039;-62
2022/09/23 09:46:15;;;;;;;14.70;11.98;;;14.00;99.90;;;;;;5075193;28;20047;-61
2022/09/23 09:49:01;;;;;;;20.60;13.63;;;14.10;99.90;;;;;;5067255;28;20122;-62
2022/09/23 09:51:28;;;;;;;20.75;11.68;;;14.10;99.90;;;;;;5072208;28;20463;-62
2022/09/23 09:54:13;;;;;;;14.73;11.50;;;14.20;99.90;;;;;;5060747;28;20093;-61
2022/09/23 09:56:40;;;;;;;17.52;13.15;;;14.30;99.90;;;;;;5076825;28;20071;-61
2022/09/23 09:59:15;;;;;;;16.77;12.15;;;14.30;99.90;;;;;;5093524;28;20079;-61
2022/09/23 10:01:41;;;;;;;14.88;12.90;;;14.40;99.90;;;;;;5075592;28;20040;-61
2022/09/23 10:04:21;;;;;;;16.40;13.10;;;14.50;99.90;;;;;;5066561;28;20036;-61
2022/09/23 10:07:08;;;;;;;13.50;11.38;;;14.50;99.90;;;;;;5067000;28;20066;-61
2022/09/23 10:09:36;;;;;;;16.27;13.00;;;14.60;99.90;;;;;;5055437;28;20058;-61
2022/09/23 10:12:17;;;;;;;14.90;12.55;;;14.50;99.90;;;;;;5076022;28;20116;-61
2022/09/23 10:14:45;;;;;;;14.93;12.60;;;14.60;99.90;;;;;;5094082;28;20400;-61
2022/09/23 10:17:19;;;;;;;14.30;12.68;;;14.60;99.90;;;;;;5059122;28;20552;-61
2022/09/23 10:19:48;;;;;;;19.83;13.80;;;14.60;99.90;;;;;;5094126;28;20084;-61
2022/09/23 10:22:28;;;;;;;14.65;12.25;;;14.60;99.90;;;;;;5093387;28;20039;-61
2022/09/23 10:24:58;;;;;;;16.58;12.57;;;14.70;99.90;;;;;;5079552;28;20048;-61
2022/09/23 10:27:33;;;;;;;14.45;12.45;;;14.70;99.90;;;;;;5084239;28;20040;-61
2022/09/23 10:30:00;;;;;;;;;;;14.70;99.90;;;;;;5091107;28;20115;-61
2022/09/23 10:32:36;;;;;;;14.48;12.52;;;14.70;99.90;;;;;;5086936;28;19980;-61
2022/09/23 10:35:13;;;;;;;14.15;12.18;;;14.70;99.90;;;;;;5089869;28;20065;-61
2022/09/23 10:37:54;;;;;;;14.40;12.45;;;14.80;99.90;;;;;;5069355;28;20071;-61
2022/09/23 10:46:46;;;;;;;15.80;12.68;;;14.80;99.90;;;;;;5054735;28;20501;-61
2022/09/23 10:49:44;;;;;;;18.17;12.90;;;14.90;99.90;;;;;;5089977;28;20400;-61
2022/09/23 10:52:30;;;;;;;18.02;13.10;;;14.90;99.90;;;;;;5090730;28;20051;-61
2022/09/23 10:55:33;;;;;;;17.27;13.20;;;14.90;99.90;;;;;;5077570;28;20036;-61
2022/09/23 10:58:34;;;;;;;18.80;12.02;;;15.00;99.90;;;;;;5070065;28;20400;-61
2022/09/23 11:01:03;;;;;;;14.43;12.85;;;15.10;99.90;;;;;;5071494;28;20178;-61
2022/09/23 11:03:57;;;;;;;15.18;12.27;;;15.10;99.90;;;;;;5090243;28;20677;-61
2022/09/23 11:06:45;;;;;;;15.98;13.13;;;15.10;99.90;;;;;;5055902;28;20079;-61
2022/09/23 11:09:33;;;;;;;18.13;14.20;;;15.10;99.90;;;;;;5063871;28;20047;-61
2022/09/23 11:12:15;;;;;;;18.05;14.77;;;15.20;99.90;;;;;;5067732;28;20036;-61
2022/09/23 11:15:08;;;;;;;18.17;13.68;;;15.20;99.90;;;;;;5069544;28;20055;-61
2022/09/23 11:17:52;;;;;;;16.48;13.07;;;15.30;99.90;;;;;;5051855;28;20539;-61
2022/09/23 11:20:53;;;;;;;19.23;15.93;;;15.30;99.90;;;;;;5070116;28;20084;-61
2022/09/23 11:23:37;;;;;;;17.20;13.55;;;15.30;99.90;;;;;;5070013;28;20500;-61
2022/09/23 11:26:21;;;;;;;19.35;15.68;;;15.30;99.90;;;;;;5051779;28;20051;-61
2022/09/23 11:29:01;;;;;;;18.55;13.68;;;15.30;99.90;;;;;;5096708;28;20079;-61
2022/09/23 11:31:51;;;;;;;17.27;15.10;;;15.30;99.90;;;;;;5080166;28;20126;-61
2022/09/23 11:34:26;;;;;;;17.65;14.32;;;15.40;99.90;;;;;;5052256;28;20048;-61
2022/09/23 11:36:58;;;;;;;17.65;15.00;;;15.40;99.90;;;;;;5051186;28;20044;-61
2022/09/23 11:39:36;;;;;;;19.52;16.92;;;15.50;99.90;;;;;;5084305;28;20047;-61
2022/09/23 11:42:08;;;;;;;18.08;15.55;;;15.50;99.90;;;;;;5054399;28;20048;-61
2022/09/23 11:44:50;;;;;;;18.27;14.93;;;15.50;99.90;;;;;;5089983;28;20043;-61
2022/09/23 11:47:49;;;;;;;18.10;13.40;;;15.50;99.90;;;;;;5089308;28;20040;-61
2022/09/23 11:50:45;;;;;;;20.45;14.63;;;15.50;99.90;;;;;;5055044;28;20056;-61
2022/09/23 11:53:19;;;;;;;20.63;16.90;;;15.40;99.90;;;;;;5036206;28;20142;-61
2022/09/23 11:56:04;;;;;;;16.60;14.80;;;15.40;99.90;;;;;;5089420;28;20048;-61
2022/09/23 11:58:48;;;;;;;16.90;13.00;;;15.40;99.90;;;;;;5071655;28;20127;-61
2022/09/23 12:01:32;;;;;;;20.10;14.13;;;15.40;99.90;;;;;;5071308;28;20338;-61
2022/09/23 12:04:02;;;;;;;21.67;15.27;;;15.40;99.90;;;;;;5089218;28;20388;-61
2022/09/23 12:06:51;;;;;;;16.45;14.50;;;15.40;99.90;;;;;;5087422;28;20036;-61
2022/09/23 12:09:58;;;;;;;19.40;13.75;;;15.40;99.90;;;;;;5085796;28;20118;-61
2022/09/23 12:13:07;;;;;;;17.23;15.20;;;15.30;99.90;;;;;;5059277;28;20067;-61
2022/09/23 12:15:38;;;;;;;18.33;15.55;;;15.30;99.90;;;;;;5086807;28;20060;-61
2022/09/23 12:18:04;;;;;;;18.65;15.10;;;15.30;99.90;;;;;;5070616;28;20609;-61
2022/09/23 12:21:04;;;;;;;17.67;15.52;;;15.20;99.90;;;;;;5088577;28;20051;-61
2022/09/23 12:23:33;;;;;;;18.85;16.58;;;15.20;99.90;;;;;;5037828;28;20093;-61
2022/09/23 12:26:07;;;;;;;21.05;16.70;;;15.20;99.90;;;;;;5059932;28;20370;-61
2022/09/23 12:28:43;;;;;;;19.67;16.05;;;15.20;99.90;;;;;;5052087;28;20155;-61
2022/09/23 12:31:12;;;;;;;18.10;16.20;;;15.10;99.90;;;;;;5056562;28;20070;-61
2022/09/23 12:33:39;;;;;;;20.13;17.73;;;15.10;99.90;;;;;;5089102;28;20040;-61
2022/09/23 12:36:06;;;;;;;20.65;17.25;;;15.10;99.90;;;;;;5085177;28;20047;-61
2022/09/23 12:39:05;;;;;;;20.73;18.50;;;15.10;99.90;;;;;;5067134;28;20067;-61
2022/09/23 12:41:36;;;;;;;20.13;16.77;;;15.10;99.90;;;;;;5059777;28;20055;-62
2022/09/23 12:44:12;;;;;;;20.73;17.98;;;15.00;99.90;;;;;;5074827;28;20089;-62
2022/09/23 12:46:47;;;;;;;23.02;19.08;;;15.10;99.90;;;;;;5070541;28;20435;-62
2022/09/23 12:49:27;;;;;;;21.77;18.60;;;15.00;99.90;;;;;;5101576;28;20050;-62
2022/09/23 12:52:20;;;;;;;20.38;16.83;;;15.00;99.90;;;;;;5085856;28;20047;-62
2022/09/23 12:54:47;;;;;;;24.95;20.02;;;15.00;99.90;;;;;;5050851;28;20057;-62
2022/09/23 12:57:31;;;;;;;22.08;18.30;;;15.00;99.90;;;;;;5078259;28;20137;-61
2022/09/23 12:59:59;;;;;;;20.60;18.00;;;15.00;99.90;;;;;;5092406;28;20132;-61
2022/09/23 13:08:29;;;;;;;27.40;20.63;;;14.90;99.90;;;;;;5075591;28;20132;-61
2022/09/23 13:11:04;;;;;;;22.98;19.33;;;14.90;99.90;;;;;;5073402;28;20121;-62
2022/09/23 13:13:30;;;;;;;;;;;14.90;99.90;;;;;;5090694;28;20040;-62
2022/09/23 13:16:09;;;;;;;20.95;18.65;;;14.80;99.90;;;;;;5091310;28;19943;-61
2022/09/23 13:19:25;;;;;;;19.45;16.85;;;14.90;99.90;;;;;;5057963;28;20060;-61